sensor_id;sensor_type;location;lat;lon;timestamp;P1;durP1;ratioP1;P2;durP2;ratioP2
2396;SDS011;1209;48.410;9.054;2023-05-20T00:01:29;7.73;;;5.30;;
2396;SDS011;1209;48.410;9.054;2023-05-20T00:03:55;5.50;;;4.50;;
2396;SDS011;1209;48.410;9.054;2023-05-20T00:06:21;6.60;;;5.00;;
2396;SDS011;1209;48.410;9.054;2023-05-20T00:08:46;7.90;;;4.80;;
2396;SDS011;1209;48.410;9.054;2023-05-20T00:11:12;5.50;;;4.40;;
2396;SDS011;1209;48.410;9.054;2023-05-20T00:13:37;5.13;;;4.63;;
2396;SDS011;1209;48.410;9.054;2023-05-20T00:16:03;4.60;;;4.20;;
2396;SDS011;1209;48.410;9.054;2023-05-20T00:18:29;6.23;;;5.00;;
2396;SDS011;1209;48.410;9.054;2023-05-20T00:20:56;6.50;;;5.30;;
2396;SDS011;1209;48.410;9.054;2023-05-20T00:23:21;5.20;;;4.73;;
2396;SDS011;1209;48.410;9.054;2023-05-20T00:25:47;4.67;;;4.07;;
2396;SDS011;1209;48.410;9.054;2023-05-20T00:28:12;4.87;;;4.33;;
2396;SDS011;1209;48.410;9.054;2023-05-20T00:30:40;6.17;;;4.90;;
2396;SDS011;1209;48.410;9.054;2023-05-20T00:33:07;6.80;;;4.90;;
2396;SDS011;1209;48.410;9.054;2023-05-20T00:35:32;5.87;;;5.27;;
2396;SDS011;1209;48.410;9.054;2023-05-20T00:37:58;5.07;;;4.17;;
2396;SDS011;1209;48.410;9.054;2023-05-20T00:40:23;7.30;;;5.47;;
2396;SDS011;1209;48.410;9.054;2023-05-20T00:42:49;4.90;;;3.80;;
2396;SDS011;1209;48.410;9.054;2023-05-20T00:45:14;6.83;;;4.80;;
2396;SDS011;1209;48.410;9.054;2023-05-20T00:47:40;7.37;;;4.70;;
2396;SDS011;1209;48.410;9.054;2023-05-20T00:50:06;5.13;;;4.23;;
2396;SDS011;1209;48.410;9.054;2023-05-20T00:52:32;7.57;;;5.73;;
2396;SDS011;1209;48.410;9.054;2023-05-20T00:54:59;9.77;;;5.60;;
2396;SDS011;1209;48.410;9.054;2023-05-20T00:57:25;6.83;;;5.87;;
2396;SDS011;1209;48.410;9.054;2023-05-20T00:59:50;7.13;;;5.90;;
2396;SDS011;1209;48.410;9.054;2023-05-20T01:02:16;6.73;;;5.73;;
2396;SDS011;1209;48.410;9.054;2023-05-20T01:04:41;6.50;;;5.37;;
2396;SDS011;1209;48.410;9.054;2023-05-20T01:07:11;6.90;;;5.20;;
2396;SDS011;1209;48.410;9.054;2023-05-20T01:09:39;9.23;;;5.80;;
2396;SDS011;1209;48.410;9.054;2023-05-20T01:14:39;7.97;;;6.03;;
2396;SDS011;1209;48.410;9.054;2023-05-20T01:17:10;7.23;;;5.87;;
2396;SDS011;1209;48.410;9.054;2023-05-20T01:19:41;8.37;;;5.90;;
2396;SDS011;1209;48.410;9.054;2023-05-20T01:22:08;7.93;;;6.67;;
2396;SDS011;1209;48.410;9.054;2023-05-20T01:24:46;9.20;;;6.60;;
2396;SDS011;1209;48.410;9.054;2023-05-20T01:27:17;6.97;;;6.27;;
2396;SDS011;1209;48.410;9.054;2023-05-20T01:29:44;11.93;;;7.13;;
2396;SDS011;1209;48.410;9.054;2023-05-20T01:32:14;9.27;;;6.87;;
2396;SDS011;1209;48.410;9.054;2023-05-20T01:34:47;8.20;;;6.87;;
2396;SDS011;1209;48.410;9.054;2023-05-20T01:37:14;10.90;;;7.00;;
2396;SDS011;1209;48.410;9.054;2023-05-20T01:39:41;9.20;;;6.40;;
2396;SDS011;1209;48.410;9.054;2023-05-20T01:42:07;8.37;;;7.00;;
2396;SDS011;1209;48.410;9.054;2023-05-20T01:44:34;8.53;;;6.60;;
2396;SDS011;1209;48.410;9.054;2023-05-20T01:46:59;10.80;;;7.47;;
2396;SDS011;1209;48.410;9.054;2023-05-20T01:49:28;8.53;;;7.67;;
2396;SDS011;1209;48.410;9.054;2023-05-20T01:51:53;9.60;;;7.20;;
2396;SDS011;1209;48.410;9.054;2023-05-20T01:54:19;10.23;;;6.77;;
2396;SDS011;1209;48.410;9.054;2023-05-20T01:56:45;12.87;;;7.63;;
2396;SDS011;1209;48.410;9.054;2023-05-20T01:59:11;12.30;;;7.47;;
2396;SDS011;1209;48.410;9.054;2023-05-20T02:01:36;11.63;;;7.90;;
2396;SDS011;1209;48.410;9.054;2023-05-20T02:04:01;10.00;;;7.10;;
2396;SDS011;1209;48.410;9.054;2023-05-20T02:06:27;7.93;;;6.10;;
2396;SDS011;1209;48.410;9.054;2023-05-20T02:08:52;7.83;;;6.93;;
2396;SDS011;1209;48.410;9.054;2023-05-20T02:11:17;8.57;;;6.93;;
2396;SDS011;1209;48.410;9.054;2023-05-20T02:13:43;8.87;;;6.50;;
2396;SDS011;1209;48.410;9.054;2023-05-20T02:16:08;7.70;;;6.53;;
2396;SDS011;1209;48.410;9.054;2023-05-20T02:18:33;7.77;;;6.60;;
2396;SDS011;1209;48.410;9.054;2023-05-20T02:21:02;10.20;;;6.97;;
2396;SDS011;1209;48.410;9.054;2023-05-20T02:23:29;11.70;;;6.83;;
2396;SDS011;1209;48.410;9.054;2023-05-20T02:25:55;7.30;;;6.30;;
2396;SDS011;1209;48.410;9.054;2023-05-20T02:28:21;9.70;;;8.20;;
2396;SDS011;1209;48.410;9.054;2023-05-20T02:30:46;10.47;;;6.63;;
2396;SDS011;1209;48.410;9.054;2023-05-20T02:33:12;10.17;;;6.20;;
2396;SDS011;1209;48.410;9.054;2023-05-20T02:35:37;8.40;;;6.57;;
2396;SDS011;1209;48.410;9.054;2023-05-20T02:38:03;7.33;;;6.50;;
2396;SDS011;1209;48.410;9.054;2023-05-20T02:40:29;9.80;;;7.10;;
2396;SDS011;1209;48.410;9.054;2023-05-20T02:42:54;7.40;;;6.57;;
2396;SDS011;1209;48.410;9.054;2023-05-20T02:45:20;9.67;;;6.70;;
2396;SDS011;1209;48.410;9.054;2023-05-20T02:47:45;8.20;;;7.37;;
2396;SDS011;1209;48.410;9.054;2023-05-20T02:50:10;10.13;;;7.20;;
2396;SDS011;1209;48.410;9.054;2023-05-20T02:52:36;7.43;;;6.50;;
2396;SDS011;1209;48.410;9.054;2023-05-20T02:55:01;8.03;;;6.50;;
2396;SDS011;1209;48.410;9.054;2023-05-20T02:57:26;7.30;;;6.10;;
2396;SDS011;1209;48.410;9.054;2023-05-20T02:59:52;7.67;;;6.10;;
2396;SDS011;1209;48.410;9.054;2023-05-20T03:02:18;7.43;;;6.73;;
2396;SDS011;1209;48.410;9.054;2023-05-20T03:04:44;9.77;;;6.90;;
2396;SDS011;1209;48.410;9.054;2023-05-20T03:07:10;9.43;;;6.90;;
2396;SDS011;1209;48.410;9.054;2023-05-20T03:09:35;9.30;;;7.10;;
2396;SDS011;1209;48.410;9.054;2023-05-20T03:12:01;11.20;;;7.10;;
2396;SDS011;1209;48.410;9.054;2023-05-20T03:14:26;10.03;;;6.60;;
2396;SDS011;1209;48.410;9.054;2023-05-20T03:16:52;9.80;;;7.43;;
2396;SDS011;1209;48.410;9.054;2023-05-20T03:19:19;11.20;;;7.40;;
2396;SDS011;1209;48.410;9.054;2023-05-20T03:21:45;8.87;;;6.40;;
2396;SDS011;1209;48.410;9.054;2023-05-20T03:24:10;10.90;;;7.00;;
2396;SDS011;1209;48.410;9.054;2023-05-20T03:26:35;10.13;;;8.27;;
2396;SDS011;1209;48.410;9.054;2023-05-20T03:29:04;9.43;;;7.50;;
2396;SDS011;1209;48.410;9.054;2023-05-20T03:31:29;9.93;;;7.20;;
2396;SDS011;1209;48.410;9.054;2023-05-20T03:33:54;12.03;;;7.93;;
2396;SDS011;1209;48.410;9.054;2023-05-20T03:36:19;9.20;;;6.80;;
2396;SDS011;1209;48.410;9.054;2023-05-20T03:38:45;14.70;;;7.03;;
2396;SDS011;1209;48.410;9.054;2023-05-20T03:41:10;11.50;;;7.57;;
2396;SDS011;1209;48.410;9.054;2023-05-20T03:43:35;8.70;;;7.00;;
2396;SDS011;1209;48.410;9.054;2023-05-20T03:46:01;11.57;;;7.30;;
2396;SDS011;1209;48.410;9.054;2023-05-20T03:48:26;9.47;;;7.40;;
2396;SDS011;1209;48.410;9.054;2023-05-20T03:50:51;9.00;;;6.90;;
2396;SDS011;1209;48.410;9.054;2023-05-20T03:53:16;9.77;;;7.20;;
2396;SDS011;1209;48.410;9.054;2023-05-20T03:55:44;8.77;;;7.07;;
2396;SDS011;1209;48.410;9.054;2023-05-20T03:58:09;8.00;;;7.00;;
2396;SDS011;1209;48.410;9.054;2023-05-20T04:00:34;13.83;;;7.43;;
2396;SDS011;1209;48.410;9.054;2023-05-20T04:03:00;9.47;;;6.50;;
2396;SDS011;1209;48.410;9.054;2023-05-20T04:05:25;8.50;;;7.10;;
2396;SDS011;1209;48.410;9.054;2023-05-20T04:07:51;7.20;;;6.23;;
2396;SDS011;1209;48.410;9.054;2023-05-20T04:10:17;7.00;;;5.80;;
2396;SDS011;1209;48.410;9.054;2023-05-20T04:12:44;8.83;;;7.13;;
2396;SDS011;1209;48.410;9.054;2023-05-20T04:15:10;8.97;;;6.90;;
2396;SDS011;1209;48.410;9.054;2023-05-20T04:17:35;9.43;;;7.50;;
2396;SDS011;1209;48.410;9.054;2023-05-20T04:20:02;8.53;;;7.20;;
2396;SDS011;1209;48.410;9.054;2023-05-20T04:22:31;8.47;;;6.73;;
2396;SDS011;1209;48.410;9.054;2023-05-20T04:24:56;10.10;;;7.10;;
2396;SDS011;1209;48.410;9.054;2023-05-20T04:27:21;8.20;;;7.23;;
2396;SDS011;1209;48.410;9.054;2023-05-20T04:29:47;6.63;;;6.03;;
2396;SDS011;1209;48.410;9.054;2023-05-20T04:32:13;9.33;;;7.53;;
2396;SDS011;1209;48.410;9.054;2023-05-20T04:34:41;8.57;;;6.53;;
2396;SDS011;1209;48.410;9.054;2023-05-20T04:37:06;11.07;;;7.27;;
2396;SDS011;1209;48.410;9.054;2023-05-20T04:39:33;7.90;;;6.67;;
2396;SDS011;1209;48.410;9.054;2023-05-20T04:41:59;10.67;;;7.70;;
2396;SDS011;1209;48.410;9.054;2023-05-20T04:44:24;9.23;;;7.00;;
2396;SDS011;1209;48.410;9.054;2023-05-20T04:46:50;8.93;;;8.03;;
2396;SDS011;1209;48.410;9.054;2023-05-20T04:49:16;10.40;;;7.70;;
2396;SDS011;1209;48.410;9.054;2023-05-20T04:51:42;9.07;;;6.37;;
2396;SDS011;1209;48.410;9.054;2023-05-20T04:54:08;8.57;;;7.53;;
2396;SDS011;1209;48.410;9.054;2023-05-20T04:56:33;11.47;;;7.40;;
2396;SDS011;1209;48.410;9.054;2023-05-20T04:58:58;10.00;;;6.73;;
2396;SDS011;1209;48.410;9.054;2023-05-20T05:01:24;10.87;;;7.07;;
2396;SDS011;1209;48.410;9.054;2023-05-20T05:03:49;7.70;;;6.10;;
2396;SDS011;1209;48.410;9.054;2023-05-20T05:06:14;9.10;;;7.00;;
2396;SDS011;1209;48.410;9.054;2023-05-20T05:08:40;7.67;;;5.80;;
2396;SDS011;1209;48.410;9.054;2023-05-20T05:11:05;7.20;;;6.00;;
2396;SDS011;1209;48.410;9.054;2023-05-20T05:13:31;8.80;;;6.60;;
2396;SDS011;1209;48.410;9.054;2023-05-20T05:15:59;8.47;;;6.57;;
2396;SDS011;1209;48.410;9.054;2023-05-20T05:18:26;6.90;;;6.20;;
2396;SDS011;1209;48.410;9.054;2023-05-20T05:21:01;9.20;;;6.80;;
2396;SDS011;1209;48.410;9.054;2023-05-20T05:23:27;8.90;;;6.60;;
2396;SDS011;1209;48.410;9.054;2023-05-20T05:25:52;7.37;;;6.10;;
2396;SDS011;1209;48.410;9.054;2023-05-20T05:28:18;7.23;;;6.17;;
2396;SDS011;1209;48.410;9.054;2023-05-20T05:30:43;6.67;;;6.00;;
2396;SDS011;1209;48.410;9.054;2023-05-20T05:33:09;14.03;;;6.67;;
2396;SDS011;1209;48.410;9.054;2023-05-20T05:35:34;8.37;;;6.73;;
2396;SDS011;1209;48.410;9.054;2023-05-20T05:38:00;6.93;;;5.83;;
2396;SDS011;1209;48.410;9.054;2023-05-20T05:40:25;7.53;;;5.70;;
2396;SDS011;1209;48.410;9.054;2023-05-20T05:42:51;12.70;;;7.30;;
2396;SDS011;1209;48.410;9.054;2023-05-20T05:45:16;7.80;;;5.93;;
2396;SDS011;1209;48.410;9.054;2023-05-20T05:47:42;7.53;;;6.47;;
2396;SDS011;1209;48.410;9.054;2023-05-20T05:50:07;9.70;;;7.30;;
2396;SDS011;1209;48.410;9.054;2023-05-20T05:52:34;7.20;;;6.10;;
2396;SDS011;1209;48.410;9.054;2023-05-20T05:54:59;7.43;;;6.20;;
2396;SDS011;1209;48.410;9.054;2023-05-20T05:57:25;7.27;;;6.03;;
2396;SDS011;1209;48.410;9.054;2023-05-20T05:59:50;7.70;;;6.10;;
2396;SDS011;1209;48.410;9.054;2023-05-20T06:02:16;7.07;;;5.63;;
2396;SDS011;1209;48.410;9.054;2023-05-20T06:04:41;9.90;;;6.70;;
2396;SDS011;1209;48.410;9.054;2023-05-20T06:07:07;8.27;;;6.07;;
2396;SDS011;1209;48.410;9.054;2023-05-20T06:09:32;6.90;;;6.20;;
2396;SDS011;1209;48.410;9.054;2023-05-20T06:11:57;6.37;;;5.47;;
2396;SDS011;1209;48.410;9.054;2023-05-20T06:14:23;7.47;;;5.63;;
2396;SDS011;1209;48.410;9.054;2023-05-20T06:16:48;7.70;;;6.70;;
2396;SDS011;1209;48.410;9.054;2023-05-20T06:19:13;6.60;;;5.90;;
2396;SDS011;1209;48.410;9.054;2023-05-20T06:21:39;6.50;;;5.60;;
2396;SDS011;1209;48.410;9.054;2023-05-20T06:24:04;8.47;;;6.80;;
2396;SDS011;1209;48.410;9.054;2023-05-20T06:26:30;7.43;;;6.20;;
2396;SDS011;1209;48.410;9.054;2023-05-20T06:28:55;7.10;;;6.40;;
2396;SDS011;1209;48.410;9.054;2023-05-20T06:31:21;6.10;;;5.50;;
2396;SDS011;1209;48.410;9.054;2023-05-20T06:33:46;7.33;;;6.10;;
2396;SDS011;1209;48.410;9.054;2023-05-20T06:36:11;9.23;;;6.43;;
2396;SDS011;1209;48.410;9.054;2023-05-20T06:38:37;11.00;;;6.07;;
2396;SDS011;1209;48.410;9.054;2023-05-20T06:41:02;7.07;;;6.33;;
2396;SDS011;1209;48.410;9.054;2023-05-20T06:43:28;6.80;;;6.17;;
2396;SDS011;1209;48.410;9.054;2023-05-20T06:45:53;7.80;;;5.73;;
2396;SDS011;1209;48.410;9.054;2023-05-20T06:48:18;7.73;;;5.87;;
2396;SDS011;1209;48.410;9.054;2023-05-20T06:50:44;7.03;;;6.40;;
2396;SDS011;1209;48.410;9.054;2023-05-20T06:53:09;8.87;;;6.63;;
2396;SDS011;1209;48.410;9.054;2023-05-20T06:55:36;8.87;;;6.60;;
2396;SDS011;1209;48.410;9.054;2023-05-20T06:58:02;10.53;;;7.60;;
2396;SDS011;1209;48.410;9.054;2023-05-20T07:00:27;8.97;;;7.87;;
2396;SDS011;1209;48.410;9.054;2023-05-20T07:02:53;7.40;;;5.97;;
2396;SDS011;1209;48.410;9.054;2023-05-20T07:05:18;8.47;;;5.70;;
2396;SDS011;1209;48.410;9.054;2023-05-20T07:07:43;7.93;;;6.20;;
2396;SDS011;1209;48.410;9.054;2023-05-20T07:10:09;8.40;;;6.30;;
2396;SDS011;1209;48.410;9.054;2023-05-20T07:12:34;6.83;;;6.00;;
2396;SDS011;1209;48.410;9.054;2023-05-20T07:15:00;10.53;;;7.13;;
2396;SDS011;1209;48.410;9.054;2023-05-20T07:17:26;8.40;;;6.73;;
2396;SDS011;1209;48.410;9.054;2023-05-20T07:19:53;6.20;;;5.53;;
2396;SDS011;1209;48.410;9.054;2023-05-20T07:22:19;6.73;;;5.03;;
2396;SDS011;1209;48.410;9.054;2023-05-20T07:24:44;9.40;;;7.33;;
2396;SDS011;1209;48.410;9.054;2023-05-20T07:27:10;8.63;;;6.53;;
2396;SDS011;1209;48.410;9.054;2023-05-20T07:29:35;8.37;;;6.03;;
2396;SDS011;1209;48.410;9.054;2023-05-20T07:32:01;6.13;;;5.37;;
2396;SDS011;1209;48.410;9.054;2023-05-20T07:34:28;7.30;;;5.77;;
2396;SDS011;1209;48.410;9.054;2023-05-20T07:36:53;7.77;;;6.30;;
2396;SDS011;1209;48.410;9.054;2023-05-20T07:39:18;8.53;;;7.40;;
2396;SDS011;1209;48.410;9.054;2023-05-20T07:41:44;7.40;;;6.13;;
2396;SDS011;1209;48.410;9.054;2023-05-20T07:44:09;7.57;;;6.67;;
2396;SDS011;1209;48.410;9.054;2023-05-20T07:46:36;7.33;;;6.23;;
2396;SDS011;1209;48.410;9.054;2023-05-20T07:49:02;8.93;;;6.80;;
2396;SDS011;1209;48.410;9.054;2023-05-20T07:51:28;9.87;;;6.13;;
2396;SDS011;1209;48.410;9.054;2023-05-20T07:53:53;8.53;;;6.63;;
2396;SDS011;1209;48.410;9.054;2023-05-20T07:56:19;7.37;;;6.60;;
2396;SDS011;1209;48.410;9.054;2023-05-20T07:58:51;7.47;;;6.10;;
2396;SDS011;1209;48.410;9.054;2023-05-20T08:01:20;9.60;;;6.93;;
2396;SDS011;1209;48.410;9.054;2023-05-20T08:03:46;9.33;;;7.43;;
2396;SDS011;1209;48.410;9.054;2023-05-20T08:06:11;10.90;;;8.17;;
2396;SDS011;1209;48.410;9.054;2023-05-20T08:08:36;9.30;;;7.30;;
2396;SDS011;1209;48.410;9.054;2023-05-20T08:11:04;8.80;;;7.67;;
2396;SDS011;1209;48.410;9.054;2023-05-20T08:13:29;8.73;;;7.30;;
2396;SDS011;1209;48.410;9.054;2023-05-20T08:15:55;9.87;;;8.20;;
2396;SDS011;1209;48.410;9.054;2023-05-20T08:18:21;9.03;;;7.27;;
2396;SDS011;1209;48.410;9.054;2023-05-20T08:20:46;7.47;;;6.43;;
2396;SDS011;1209;48.410;9.054;2023-05-20T08:23:12;7.53;;;6.50;;
2396;SDS011;1209;48.410;9.054;2023-05-20T08:25:37;9.20;;;6.50;;
2396;SDS011;1209;48.410;9.054;2023-05-20T08:28:03;7.40;;;6.53;;
2396;SDS011;1209;48.410;9.054;2023-05-20T08:30:30;7.03;;;6.23;;
2396;SDS011;1209;48.410;9.054;2023-05-20T08:32:56;7.37;;;6.47;;
2396;SDS011;1209;48.410;9.054;2023-05-20T08:35:22;9.50;;;6.60;;
2396;SDS011;1209;48.410;9.054;2023-05-20T08:37:47;8.10;;;6.77;;
2396;SDS011;1209;48.410;9.054;2023-05-20T08:40:13;7.70;;;6.30;;
2396;SDS011;1209;48.410;9.054;2023-05-20T08:42:42;8.77;;;6.53;;
2396;SDS011;1209;48.410;9.054;2023-05-20T08:45:11;9.03;;;6.90;;
2396;SDS011;1209;48.410;9.054;2023-05-20T08:47:40;8.40;;;6.47;;
2396;SDS011;1209;48.410;9.054;2023-05-20T08:50:07;9.57;;;7.10;;
2396;SDS011;1209;48.410;9.054;2023-05-20T08:52:34;8.60;;;6.50;;
2396;SDS011;1209;48.410;9.054;2023-05-20T08:55:02;6.50;;;5.90;;
2396;SDS011;1209;48.410;9.054;2023-05-20T08:57:31;8.10;;;7.30;;
2396;SDS011;1209;48.410;9.054;2023-05-20T08:59:58;9.67;;;7.70;;
2396;SDS011;1209;48.410;9.054;2023-05-20T09:02:24;7.80;;;5.87;;
2396;SDS011;1209;48.410;9.054;2023-05-20T09:04:49;8.60;;;6.57;;
2396;SDS011;1209;48.410;9.054;2023-05-20T09:07:24;10.80;;;6.33;;
2396;SDS011;1209;48.410;9.054;2023-05-20T09:09:51;8.90;;;6.97;;
2396;SDS011;1209;48.410;9.054;2023-05-20T09:12:16;7.60;;;6.63;;
2396;SDS011;1209;48.410;9.054;2023-05-20T09:14:41;8.20;;;6.83;;
2396;SDS011;1209;48.410;9.054;2023-05-20T09:17:07;7.93;;;6.47;;
2396;SDS011;1209;48.410;9.054;2023-05-20T09:19:32;7.63;;;6.00;;
2396;SDS011;1209;48.410;9.054;2023-05-20T09:21:57;7.53;;;6.70;;
2396;SDS011;1209;48.410;9.054;2023-05-20T09:24:23;8.50;;;6.60;;
2396;SDS011;1209;48.410;9.054;2023-05-20T09:26:50;6.67;;;5.83;;
2396;SDS011;1209;48.410;9.054;2023-05-20T09:29:16;7.67;;;6.30;;
2396;SDS011;1209;48.410;9.054;2023-05-20T09:31:43;7.80;;;6.43;;
2396;SDS011;1209;48.410;9.054;2023-05-20T09:34:08;11.30;;;7.40;;
2396;SDS011;1209;48.410;9.054;2023-05-20T09:36:34;8.00;;;7.00;;
2396;SDS011;1209;48.410;9.054;2023-05-20T09:39:00;9.20;;;7.13;;
2396;SDS011;1209;48.410;9.054;2023-05-20T09:41:32;8.27;;;7.00;;
2396;SDS011;1209;48.410;9.054;2023-05-20T09:44:03;8.83;;;6.80;;
2396;SDS011;1209;48.410;9.054;2023-05-20T09:46:31;7.33;;;6.63;;
2396;SDS011;1209;48.410;9.054;2023-05-20T09:48:58;8.17;;;6.13;;
2396;SDS011;1209;48.410;9.054;2023-05-20T09:51:23;8.07;;;6.60;;
2396;SDS011;1209;48.410;9.054;2023-05-20T09:53:50;7.80;;;6.30;;
2396;SDS011;1209;48.410;9.054;2023-05-20T09:56:17;6.80;;;4.93;;
2396;SDS011;1209;48.410;9.054;2023-05-20T09:58:45;6.53;;;5.73;;
2396;SDS011;1209;48.410;9.054;2023-05-20T10:01:12;9.97;;;5.30;;
2396;SDS011;1209;48.410;9.054;2023-05-20T10:03:38;9.80;;;6.00;;
2396;SDS011;1209;48.410;9.054;2023-05-20T10:06:14;6.43;;;5.83;;
2396;SDS011;1209;48.410;9.054;2023-05-20T10:11:46;6.70;;;5.50;;
2396;SDS011;1209;48.410;9.054;2023-05-20T10:14:22;8.87;;;6.77;;
2396;SDS011;1209;48.410;9.054;2023-05-20T10:19:45;6.67;;;5.80;;
2396;SDS011;1209;48.410;9.054;2023-05-20T10:22:10;7.23;;;6.20;;
2396;SDS011;1209;48.410;9.054;2023-05-20T10:24:40;8.17;;;6.10;;
2396;SDS011;1209;48.410;9.054;2023-05-20T10:27:11;6.80;;;5.93;;
2396;SDS011;1209;48.410;9.054;2023-05-20T10:29:50;6.23;;;5.07;;
2396;SDS011;1209;48.410;9.054;2023-05-20T10:32:30;7.77;;;6.33;;
2396;SDS011;1209;48.410;9.054;2023-05-20T10:35:00;8.77;;;5.23;;
2396;SDS011;1209;48.410;9.054;2023-05-20T10:37:39;6.80;;;6.00;;
2396;SDS011;1209;48.410;9.054;2023-05-20T10:40:06;8.45;;;6.53;;
2396;SDS011;1209;48.410;9.054;2023-05-20T10:42:34;6.30;;;5.33;;
2396;SDS011;1209;48.410;9.054;2023-05-20T10:44:59;6.03;;;5.43;;
2396;SDS011;1209;48.410;9.054;2023-05-20T10:47:25;6.20;;;5.20;;
2396;SDS011;1209;48.410;9.054;2023-05-20T10:49:50;7.00;;;6.13;;
2396;SDS011;1209;48.410;9.054;2023-05-20T10:52:16;6.40;;;5.80;;
2396;SDS011;1209;48.410;9.054;2023-05-20T10:54:42;6.90;;;5.53;;
2396;SDS011;1209;48.410;9.054;2023-05-20T10:57:09;7.10;;;5.70;;
2396;SDS011;1209;48.410;9.054;2023-05-20T10:59:35;6.40;;;5.70;;
2396;SDS011;1209;48.410;9.054;2023-05-20T11:02:01;7.10;;;5.43;;
2396;SDS011;1209;48.410;9.054;2023-05-20T11:04:28;6.37;;;5.77;;
2396;SDS011;1209;48.410;9.054;2023-05-20T11:06:54;7.27;;;5.70;;
2396;SDS011;1209;48.410;9.054;2023-05-20T11:09:20;9.30;;;5.60;;
2396;SDS011;1209;48.410;9.054;2023-05-20T11:11:45;12.00;;;5.90;;
2396;SDS011;1209;48.410;9.054;2023-05-20T11:14:11;8.60;;;6.40;;
2396;SDS011;1209;48.410;9.054;2023-05-20T11:16:38;8.37;;;5.33;;
2396;SDS011;1209;48.410;9.054;2023-05-20T11:19:06;6.57;;;5.57;;
2396;SDS011;1209;48.410;9.054;2023-05-20T11:21:32;8.43;;;5.97;;
2396;SDS011;1209;48.410;9.054;2023-05-20T11:23:58;6.10;;;5.23;;
2396;SDS011;1209;48.410;9.054;2023-05-20T11:26:23;9.13;;;5.43;;
2396;SDS011;1209;48.410;9.054;2023-05-20T11:28:48;5.40;;;4.70;;
2396;SDS011;1209;48.410;9.054;2023-05-20T11:31:14;7.70;;;5.93;;
2396;SDS011;1209;48.410;9.054;2023-05-20T11:33:43;6.00;;;5.40;;
2396;SDS011;1209;48.410;9.054;2023-05-20T11:36:08;7.80;;;5.80;;
2396;SDS011;1209;48.410;9.054;2023-05-20T11:38:35;6.80;;;6.20;;
2396;SDS011;1209;48.410;9.054;2023-05-20T11:41:00;6.03;;;5.20;;
2396;SDS011;1209;48.410;9.054;2023-05-20T11:43:26;5.60;;;5.07;;
2396;SDS011;1209;48.410;9.054;2023-05-20T11:45:52;6.43;;;5.60;;
2396;SDS011;1209;48.410;9.054;2023-05-20T11:48:19;6.20;;;5.57;;
2396;SDS011;1209;48.410;9.054;2023-05-20T11:50:45;5.90;;;5.10;;
2396;SDS011;1209;48.410;9.054;2023-05-20T11:53:15;5.30;;;4.80;;
2396;SDS011;1209;48.410;9.054;2023-05-20T11:55:45;5.57;;;5.03;;
2396;SDS011;1209;48.410;9.054;2023-05-20T11:58:17;5.93;;;5.03;;
2396;SDS011;1209;48.410;9.054;2023-05-20T12:00:43;8.67;;;6.40;;
2396;SDS011;1209;48.410;9.054;2023-05-20T12:03:09;6.00;;;5.40;;
2396;SDS011;1209;48.410;9.054;2023-05-20T12:05:35;5.63;;;5.13;;
2396;SDS011;1209;48.410;9.054;2023-05-20T12:08:01;5.47;;;4.97;;
2396;SDS011;1209;48.410;9.054;2023-05-20T12:10:27;7.10;;;5.80;;
2396;SDS011;1209;48.410;9.054;2023-05-20T12:12:53;6.77;;;5.33;;
2396;SDS011;1209;48.410;9.054;2023-05-20T12:15:18;6.20;;;5.60;;
2396;SDS011;1209;48.410;9.054;2023-05-20T12:17:45;6.10;;;5.50;;
2396;SDS011;1209;48.410;9.054;2023-05-20T12:20:12;6.43;;;5.70;;
2396;SDS011;1209;48.410;9.054;2023-05-20T12:22:39;5.40;;;4.73;;
2396;SDS011;1209;48.410;9.054;2023-05-20T12:25:05;5.20;;;4.70;;
2396;SDS011;1209;48.410;9.054;2023-05-20T12:27:30;7.13;;;5.07;;
2396;SDS011;1209;48.410;9.054;2023-05-20T12:29:57;4.90;;;4.50;;
2396;SDS011;1209;48.410;9.054;2023-05-20T12:32:23;4.97;;;4.57;;
2396;SDS011;1209;48.410;9.054;2023-05-20T12:34:48;4.60;;;4.20;;
2396;SDS011;1209;48.410;9.054;2023-05-20T12:37:14;5.63;;;5.10;;
2396;SDS011;1209;48.410;9.054;2023-05-20T12:39:39;5.27;;;4.70;;
2396;SDS011;1209;48.410;9.054;2023-05-20T12:42:04;4.57;;;4.17;;
2396;SDS011;1209;48.410;9.054;2023-05-20T12:44:29;5.13;;;4.53;;
2396;SDS011;1209;48.410;9.054;2023-05-20T12:46:55;8.10;;;5.10;;
2396;SDS011;1209;48.410;9.054;2023-05-20T12:49:20;5.83;;;5.33;;
2396;SDS011;1209;48.410;9.054;2023-05-20T12:51:46;9.07;;;4.70;;
2396;SDS011;1209;48.410;9.054;2023-05-20T12:54:11;5.07;;;4.47;;
2396;SDS011;1209;48.410;9.054;2023-05-20T12:56:36;5.73;;;4.67;;
2396;SDS011;1209;48.410;9.054;2023-05-20T12:59:01;6.80;;;5.20;;
2396;SDS011;1209;48.410;9.054;2023-05-20T13:01:27;6.70;;;5.47;;
2396;SDS011;1209;48.410;9.054;2023-05-20T13:03:52;6.03;;;4.83;;
2396;SDS011;1209;48.410;9.054;2023-05-20T13:06:19;6.27;;;5.00;;
2396;SDS011;1209;48.410;9.054;2023-05-20T13:08:44;5.70;;;4.57;;
2396;SDS011;1209;48.410;9.054;2023-05-20T13:11:10;5.93;;;5.33;;
2396;SDS011;1209;48.410;9.054;2023-05-20T13:13:35;5.60;;;4.70;;
2396;SDS011;1209;48.410;9.054;2023-05-20T13:16:01;4.87;;;4.30;;
2396;SDS011;1209;48.410;9.054;2023-05-20T13:18:27;7.70;;;6.23;;
2396;SDS011;1209;48.410;9.054;2023-05-20T13:20:52;5.10;;;4.60;;
2396;SDS011;1209;48.410;9.054;2023-05-20T13:23:17;5.30;;;4.80;;
2396;SDS011;1209;48.410;9.054;2023-05-20T13:25:42;4.60;;;4.20;;
2396;SDS011;1209;48.410;9.054;2023-05-20T13:28:08;5.90;;;5.03;;
2396;SDS011;1209;48.410;9.054;2023-05-20T13:30:34;5.10;;;4.33;;
2396;SDS011;1209;48.410;9.054;2023-05-20T13:33:00;6.03;;;4.73;;
2396;SDS011;1209;48.410;9.054;2023-05-20T13:35:26;21.53;;;5.00;;
2396;SDS011;1209;48.410;9.054;2023-05-20T13:37:51;4.90;;;4.27;;
2396;SDS011;1209;48.410;9.054;2023-05-20T13:40:16;4.33;;;3.80;;
2396;SDS011;1209;48.410;9.054;2023-05-20T13:42:41;4.90;;;4.50;;
2396;SDS011;1209;48.410;9.054;2023-05-20T13:45:08;5.23;;;4.50;;
2396;SDS011;1209;48.410;9.054;2023-05-20T13:47:34;5.93;;;4.27;;
2396;SDS011;1209;48.410;9.054;2023-05-20T13:49:59;4.97;;;4.47;;
2396;SDS011;1209;48.410;9.054;2023-05-20T13:52:24;4.20;;;3.80;;
2396;SDS011;1209;48.410;9.054;2023-05-20T13:54:49;4.83;;;4.33;;
2396;SDS011;1209;48.410;9.054;2023-05-20T13:57:15;5.43;;;4.00;;
2396;SDS011;1209;48.410;9.054;2023-05-20T13:59:40;4.63;;;4.23;;
2396;SDS011;1209;48.410;9.054;2023-05-20T14:02:06;4.73;;;4.27;;
2396;SDS011;1209;48.410;9.054;2023-05-20T14:04:31;5.67;;;4.40;;
2396;SDS011;1209;48.410;9.054;2023-05-20T14:07:02;5.10;;;3.67;;
2396;SDS011;1209;48.410;9.054;2023-05-20T14:09:28;6.47;;;5.10;;
2396;SDS011;1209;48.410;9.054;2023-05-20T14:11:53;4.87;;;3.57;;
2396;SDS011;1209;48.410;9.054;2023-05-20T14:14:19;4.73;;;3.70;;
2396;SDS011;1209;48.410;9.054;2023-05-20T14:16:44;6.03;;;4.60;;
2396;SDS011;1209;48.410;9.054;2023-05-20T14:19:10;4.60;;;3.70;;
2396;SDS011;1209;48.410;9.054;2023-05-20T14:21:35;3.80;;;3.43;;
2396;SDS011;1209;48.410;9.054;2023-05-20T14:24:00;4.03;;;3.70;;
2396;SDS011;1209;48.410;9.054;2023-05-20T14:26:26;4.13;;;3.63;;
2396;SDS011;1209;48.410;9.054;2023-05-20T14:28:51;6.10;;;3.80;;
2396;SDS011;1209;48.410;9.054;2023-05-20T14:31:16;3.27;;;2.67;;
2396;SDS011;1209;48.410;9.054;2023-05-20T14:33:42;3.40;;;3.10;;
2396;SDS011;1209;48.410;9.054;2023-05-20T14:36:07;3.27;;;2.97;;
2396;SDS011;1209;48.410;9.054;2023-05-20T14:38:34;4.30;;;3.03;;
2396;SDS011;1209;48.410;9.054;2023-05-20T14:40:59;3.33;;;3.03;;
2396;SDS011;1209;48.410;9.054;2023-05-20T14:43:25;5.50;;;2.70;;
2396;SDS011;1209;48.410;9.054;2023-05-20T14:45:50;3.83;;;3.43;;
2396;SDS011;1209;48.410;9.054;2023-05-20T14:48:16;3.63;;;2.73;;
2396;SDS011;1209;48.410;9.054;2023-05-20T14:50:41;3.40;;;3.10;;
2396;SDS011;1209;48.410;9.054;2023-05-20T14:53:07;5.60;;;2.90;;
2396;SDS011;1209;48.410;9.054;2023-05-20T14:55:32;2.90;;;2.70;;
2396;SDS011;1209;48.410;9.054;2023-05-20T14:57:57;3.27;;;2.97;;
2396;SDS011;1209;48.410;9.054;2023-05-20T15:00:23;3.63;;;3.10;;
2396;SDS011;1209;48.410;9.054;2023-05-20T15:02:48;3.00;;;2.70;;
2396;SDS011;1209;48.410;9.054;2023-05-20T15:05:13;6.67;;;3.10;;
2396;SDS011;1209;48.410;9.054;2023-05-20T15:07:39;5.03;;;3.97;;
2396;SDS011;1209;48.410;9.054;2023-05-20T15:10:04;3.90;;;3.50;;
2396;SDS011;1209;48.410;9.054;2023-05-20T15:12:30;6.40;;;3.17;;
2396;SDS011;1209;48.410;9.054;2023-05-20T15:14:55;3.33;;;3.03;;
2396;SDS011;1209;48.410;9.054;2023-05-20T15:17:21;3.70;;;3.40;;